GCFV/FUE METAR and TAF weather

Enter ICAO airport designator
Station Type Date Time Source
GCFV METAR 2019/12/16 03:30 UTC NOAA

GCFV 160330Z AUTO VRB01KT CAVOK 14/11 Q1012


Station Type Date Time Source
GCFV Decoded METAR 2019/12/16 03:30 UTC NOAA

Fuerteventura / Aeropuerto, Spain (GCFV) 28-27N 013-52W 30M
Dec 15, 2019 - 10:30 PM EST / 2019.12.16 0330 UTC
Wind: Variable at 1 MPH (1 KT):0
Visibility: greater than 7 mile(s):0
Temperature: 57 F (14 C)
Dew Point: 51 F (11 C)
Relative Humidity: 82%
Pressure (altimeter): 29.88 in. Hg (1012 hPa)
ob: GCFV 160330Z AUTO VRB01KT CAVOK 14/11 Q1012
cycle: 3

Station Type Date Time Source
GCFV TAF 2019/12/16 03:27 UTC NOAA

TAF TAF GCFV 160200Z 1603/1703 26008KT 9999 SCT020 TX20/1614Z TN15/1606Z
TEMPO 1605/1610 4900 RA
BECMG 1609/1611 30022KT
TEMPO 1611/1619 31020G32KT
BECMG 1618/1620 31012KT

Example: see airport list